sensor_id;sensor_type;location;lat;lon;timestamp;temperature;humidity
12957;DHT22;6543;48.836;10.092;2023-08-20T00:00:54;20.60;99.90
12957;DHT22;6543;48.836;10.092;2023-08-20T00:03:21;20.60;99.90
12957;DHT22;6543;48.836;10.092;2023-08-20T00:05:51;20.50;99.90
12957;DHT22;6543;48.836;10.092;2023-08-20T00:08:18;20.50;99.90
12957;DHT22;6543;48.836;10.092;2023-08-20T00:10:45;20.50;99.90
12957;DHT22;6543;48.836;10.092;2023-08-20T00:13:12;20.50;99.90
12957;DHT22;6543;48.836;10.092;2023-08-20T00:15:39;20.50;99.90
12957;DHT22;6543;48.836;10.092;2023-08-20T00:18:07;20.40;99.90
12957;DHT22;6543;48.836;10.092;2023-08-20T00:20:34;20.40;99.90
12957;DHT22;6543;48.836;10.092;2023-08-20T00:23:03;20.30;99.90
12957;DHT22;6543;48.836;10.092;2023-08-20T00:25:31;20.30;99.90
12957;DHT22;6543;48.836;10.092;2023-08-20T00:27:58;20.30;99.90
12957;DHT22;6543;48.836;10.092;2023-08-20T00:30:25;20.30;99.90
12957;DHT22;6543;48.836;10.092;2023-08-20T00:32:51;20.20;99.90
12957;DHT22;6543;48.836;10.092;2023-08-20T00:35:18;20.20;99.90
12957;DHT22;6543;48.836;10.092;2023-08-20T00:37:45;20.10;99.90
12957;DHT22;6543;48.836;10.092;2023-08-20T00:40:13;20.10;99.90
12957;DHT22;6543;48.836;10.092;2023-08-20T00:42:40;20.20;99.90
12957;DHT22;6543;48.836;10.092;2023-08-20T00:45:08;20.10;99.90
12957;DHT22;6543;48.836;10.092;2023-08-20T00:47:35;20.10;99.90
12957;DHT22;6543;48.836;10.092;2023-08-20T00:50:03;20.00;99.90
12957;DHT22;6543;48.836;10.092;2023-08-20T00:52:32;20.00;99.90
12957;DHT22;6543;48.836;10.092;2023-08-20T00:54:59;20.00;99.90
12957;DHT22;6543;48.836;10.092;2023-08-20T00:57:28;20.00;99.90
12957;DHT22;6543;48.836;10.092;2023-08-20T00:59:55;20.00;99.90
12957;DHT22;6543;48.836;10.092;2023-08-20T01:02:23;20.10;99.90
12957;DHT22;6543;48.836;10.092;2023-08-20T01:04:50;20.10;99.90
12957;DHT22;6543;48.836;10.092;2023-08-20T01:07:24;20.10;99.90
12957;DHT22;6543;48.836;10.092;2023-08-20T01:10:00;20.00;99.90
12957;DHT22;6543;48.836;10.092;2023-08-20T01:12:32;20.00;99.90
12957;DHT22;6543;48.836;10.092;2023-08-20T01:15:00;20.00;99.90
12957;DHT22;6543;48.836;10.092;2023-08-20T01:17:27;20.00;99.90
12957;DHT22;6543;48.836;10.092;2023-08-20T01:19:54;20.00;99.90
12957;DHT22;6543;48.836;10.092;2023-08-20T01:22:40;20.00;99.90
12957;DHT22;6543;48.836;10.092;2023-08-20T01:25:18;20.00;99.90
12957;DHT22;6543;48.836;10.092;2023-08-20T01:27:58;19.90;99.90
12957;DHT22;6543;48.836;10.092;2023-08-20T01:30:31;19.90;99.90
12957;DHT22;6543;48.836;10.092;2023-08-20T01:32:59;19.90;99.90
12957;DHT22;6543;48.836;10.092;2023-08-20T01:35:27;19.90;99.90
12957;DHT22;6543;48.836;10.092;2023-08-20T01:37:54;19.90;99.90
12957;DHT22;6543;48.836;10.092;2023-08-20T01:40:20;19.90;99.90
12957;DHT22;6543;48.836;10.092;2023-08-20T01:42:47;19.90;99.90
12957;DHT22;6543;48.836;10.092;2023-08-20T01:45:14;19.90;99.90
12957;DHT22;6543;48.836;10.092;2023-08-20T01:47:42;19.90;99.90
12957;DHT22;6543;48.836;10.092;2023-08-20T01:50:10;19.80;99.90
12957;DHT22;6543;48.836;10.092;2023-08-20T01:52:37;19.70;99.90
12957;DHT22;6543;48.836;10.092;2023-08-20T01:55:04;19.70;99.90
12957;DHT22;6543;48.836;10.092;2023-08-20T01:57:31;19.70;99.90
12957;DHT22;6543;48.836;10.092;2023-08-20T01:59:58;19.70;99.90
12957;DHT22;6543;48.836;10.092;2023-08-20T02:02:25;19.70;99.90
12957;DHT22;6543;48.836;10.092;2023-08-20T02:04:53;19.70;99.90
12957;DHT22;6543;48.836;10.092;2023-08-20T02:07:20;19.80;99.90
12957;DHT22;6543;48.836;10.092;2023-08-20T02:09:47;19.80;99.90
12957;DHT22;6543;48.836;10.092;2023-08-20T02:12:14;19.80;99.90
12957;DHT22;6543;48.836;10.092;2023-08-20T02:14:41;19.70;99.90
12957;DHT22;6543;48.836;10.092;2023-08-20T02:17:08;19.70;99.90
12957;DHT22;6543;48.836;10.092;2023-08-20T02:19:35;19.70;99.90
12957;DHT22;6543;48.836;10.092;2023-08-20T02:22:03;19.70;99.90
12957;DHT22;6543;48.836;10.092;2023-08-20T02:24:30;19.80;99.90
12957;DHT22;6543;48.836;10.092;2023-08-20T02:26:57;19.80;99.90
12957;DHT22;6543;48.836;10.092;2023-08-20T02:29:24;19.90;99.90
12957;DHT22;6543;48.836;10.092;2023-08-20T02:31:51;19.80;99.90
12957;DHT22;6543;48.836;10.092;2023-08-20T02:34:18;19.70;99.90
12957;DHT22;6543;48.836;10.092;2023-08-20T02:36:44;19.60;99.90
12957;DHT22;6543;48.836;10.092;2023-08-20T02:39:13;19.50;99.90
12957;DHT22;6543;48.836;10.092;2023-08-20T02:41:40;19.50;99.90
12957;DHT22;6543;48.836;10.092;2023-08-20T02:44:07;19.50;99.90
12957;DHT22;6543;48.836;10.092;2023-08-20T02:46:33;19.60;99.90
12957;DHT22;6543;48.836;10.092;2023-08-20T02:49:00;19.60;99.90
12957;DHT22;6543;48.836;10.092;2023-08-20T02:51:27;19.60;99.90
12957;DHT22;6543;48.836;10.092;2023-08-20T02:53:54;19.50;99.90
12957;DHT22;6543;48.836;10.092;2023-08-20T02:56:22;19.50;99.90
12957;DHT22;6543;48.836;10.092;2023-08-20T02:58:49;19.40;99.90
12957;DHT22;6543;48.836;10.092;2023-08-20T03:01:19;19.40;99.90
12957;DHT22;6543;48.836;10.092;2023-08-20T03:03:46;19.40;99.90
12957;DHT22;6543;48.836;10.092;2023-08-20T03:06:13;19.40;99.90
12957;DHT22;6543;48.836;10.092;2023-08-20T03:08:40;19.40;99.90
12957;DHT22;6543;48.836;10.092;2023-08-20T03:11:07;19.40;99.90
12957;DHT22;6543;48.836;10.092;2023-08-20T03:13:35;19.30;99.90
12957;DHT22;6543;48.836;10.092;2023-08-20T03:16:15;19.20;99.90
12957;DHT22;6543;48.836;10.092;2023-08-20T03:18:42;19.30;99.90
12957;DHT22;6543;48.836;10.092;2023-08-20T03:21:08;19.20;99.90
12957;DHT22;6543;48.836;10.092;2023-08-20T03:23:36;19.20;99.90
12957;DHT22;6543;48.836;10.092;2023-08-20T03:26:02;19.20;99.90
12957;DHT22;6543;48.836;10.092;2023-08-20T03:28:29;19.20;99.90
12957;DHT22;6543;48.836;10.092;2023-08-20T03:31:00;19.20;99.90
12957;DHT22;6543;48.836;10.092;2023-08-20T03:33:27;19.20;99.90
12957;DHT22;6543;48.836;10.092;2023-08-20T03:35:54;19.10;99.90
12957;DHT22;6543;48.836;10.092;2023-08-20T03:38:21;19.10;99.90
12957;DHT22;6543;48.836;10.092;2023-08-20T03:40:49;19.10;99.90
12957;DHT22;6543;48.836;10.092;2023-08-20T03:43:16;19.10;99.90
12957;DHT22;6543;48.836;10.092;2023-08-20T03:45:43;19.00;99.90
12957;DHT22;6543;48.836;10.092;2023-08-20T03:48:11;19.00;99.90
12957;DHT22;6543;48.836;10.092;2023-08-20T03:50:38;19.00;99.90
12957;DHT22;6543;48.836;10.092;2023-08-20T03:53:05;19.10;99.90
12957;DHT22;6543;48.836;10.092;2023-08-20T03:55:32;19.10;99.90
12957;DHT22;6543;48.836;10.092;2023-08-20T03:57:58;19.20;99.90
12957;DHT22;6543;48.836;10.092;2023-08-20T04:00:25;19.20;99.90
12957;DHT22;6543;48.836;10.092;2023-08-20T04:02:52;19.10;99.90
12957;DHT22;6543;48.836;10.092;2023-08-20T04:05:20;19.00;99.90
12957;DHT22;6543;48.836;10.092;2023-08-20T04:07:47;19.00;99.90
12957;DHT22;6543;48.836;10.092;2023-08-20T04:10:14;18.90;99.90
12957;DHT22;6543;48.836;10.092;2023-08-20T04:12:41;18.90;99.90
12957;DHT22;6543;48.836;10.092;2023-08-20T04:15:08;18.90;99.90
12957;DHT22;6543;48.836;10.092;2023-08-20T04:17:35;18.90;99.90
12957;DHT22;6543;48.836;10.092;2023-08-20T04:20:02;18.90;99.90
12957;DHT22;6543;48.836;10.092;2023-08-20T04:22:32;18.90;99.90
12957;DHT22;6543;48.836;10.092;2023-08-20T04:24:58;18.90;99.90
12957;DHT22;6543;48.836;10.092;2023-08-20T04:27:25;19.00;99.90
12957;DHT22;6543;48.836;10.092;2023-08-20T04:29:52;18.90;99.90
12957;DHT22;6543;48.836;10.092;2023-08-20T04:32:19;19.00;99.90
12957;DHT22;6543;48.836;10.092;2023-08-20T04:34:46;19.00;99.90
12957;DHT22;6543;48.836;10.092;2023-08-20T04:37:15;18.90;99.90
12957;DHT22;6543;48.836;10.092;2023-08-20T04:39:43;18.90;99.90
12957;DHT22;6543;48.836;10.092;2023-08-20T04:42:10;18.90;99.90
12957;DHT22;6543;48.836;10.092;2023-08-20T04:44:36;18.90;99.90
12957;DHT22;6543;48.836;10.092;2023-08-20T04:47:03;19.00;99.90
12957;DHT22;6543;48.836;10.092;2023-08-20T04:49:31;19.00;99.90
12957;DHT22;6543;48.836;10.092;2023-08-20T04:51:57;19.00;99.90
12957;DHT22;6543;48.836;10.092;2023-08-20T04:54:24;19.00;99.90
12957;DHT22;6543;48.836;10.092;2023-08-20T04:56:52;19.00;99.90
12957;DHT22;6543;48.836;10.092;2023-08-20T04:59:19;19.00;99.90
12957;DHT22;6543;48.836;10.092;2023-08-20T05:01:46;19.10;99.90
12957;DHT22;6543;48.836;10.092;2023-08-20T05:04:13;19.10;99.90
12957;DHT22;6543;48.836;10.092;2023-08-20T05:06:40;19.20;99.90
12957;DHT22;6543;48.836;10.092;2023-08-20T05:09:06;19.30;99.90
12957;DHT22;6543;48.836;10.092;2023-08-20T05:11:33;19.30;99.90
12957;DHT22;6543;48.836;10.092;2023-08-20T05:14:01;19.40;99.90
12957;DHT22;6543;48.836;10.092;2023-08-20T05:16:28;19.50;99.90
12957;DHT22;6543;48.836;10.092;2023-08-20T05:18:55;19.50;99.90
12957;DHT22;6543;48.836;10.092;2023-08-20T05:21:22;19.60;99.90
12957;DHT22;6543;48.836;10.092;2023-08-20T05:23:49;19.60;99.90
12957;DHT22;6543;48.836;10.092;2023-08-20T05:26:15;19.70;99.90
12957;DHT22;6543;48.836;10.092;2023-08-20T05:28:42;19.80;99.90
12957;DHT22;6543;48.836;10.092;2023-08-20T05:31:11;19.90;99.90
12957;DHT22;6543;48.836;10.092;2023-08-20T05:33:38;19.90;99.90
12957;DHT22;6543;48.836;10.092;2023-08-20T05:36:05;20.00;99.90
12957;DHT22;6543;48.836;10.092;2023-08-20T05:38:32;20.10;99.90
12957;DHT22;6543;48.836;10.092;2023-08-20T05:40:58;20.20;99.90
12957;DHT22;6543;48.836;10.092;2023-08-20T05:43:25;20.30;99.90
12957;DHT22;6543;48.836;10.092;2023-08-20T05:45:52;20.40;99.90
12957;DHT22;6543;48.836;10.092;2023-08-20T05:48:20;20.50;99.90
12957;DHT22;6543;48.836;10.092;2023-08-20T05:50:47;20.50;99.90
12957;DHT22;6543;48.836;10.092;2023-08-20T05:53:14;20.60;99.90
12957;DHT22;6543;48.836;10.092;2023-08-20T05:55:41;20.60;99.90
12957;DHT22;6543;48.836;10.092;2023-08-20T05:58:07;20.80;99.90
12957;DHT22;6543;48.836;10.092;2023-08-20T06:00:34;20.90;99.90
12957;DHT22;6543;48.836;10.092;2023-08-20T06:03:01;21.00;99.90
12957;DHT22;6543;48.836;10.092;2023-08-20T06:05:29;21.10;99.90
12957;DHT22;6543;48.836;10.092;2023-08-20T06:07:56;21.20;99.90
12957;DHT22;6543;48.836;10.092;2023-08-20T06:10:23;21.40;99.90
12957;DHT22;6543;48.836;10.092;2023-08-20T06:12:50;21.40;99.90
12957;DHT22;6543;48.836;10.092;2023-08-20T06:15:17;21.50;99.90
12957;DHT22;6543;48.836;10.092;2023-08-20T06:17:44;21.80;99.90
12957;DHT22;6543;48.836;10.092;2023-08-20T06:20:11;21.90;99.90
12957;DHT22;6543;48.836;10.092;2023-08-20T06:22:39;22.00;99.90
12957;DHT22;6543;48.836;10.092;2023-08-20T06:25:07;22.20;99.90
12957;DHT22;6543;48.836;10.092;2023-08-20T06:27:34;22.20;99.90
12957;DHT22;6543;48.836;10.092;2023-08-20T06:30:00;22.40;99.90
12957;DHT22;6543;48.836;10.092;2023-08-20T06:32:27;22.50;99.90
12957;DHT22;6543;48.836;10.092;2023-08-20T06:34:54;22.60;99.90
12957;DHT22;6543;48.836;10.092;2023-08-20T06:37:21;22.60;99.90
12957;DHT22;6543;48.836;10.092;2023-08-20T06:39:49;22.60;99.90
12957;DHT22;6543;48.836;10.092;2023-08-20T06:42:16;22.60;99.90
12957;DHT22;6543;48.836;10.092;2023-08-20T06:44:42;22.70;99.90
12957;DHT22;6543;48.836;10.092;2023-08-20T06:47:09;22.90;99.90
12957;DHT22;6543;48.836;10.092;2023-08-20T06:49:37;22.90;99.90
12957;DHT22;6543;48.836;10.092;2023-08-20T06:52:04;23.10;99.90
12957;DHT22;6543;48.836;10.092;2023-08-20T06:54:31;23.20;99.90
12957;DHT22;6543;48.836;10.092;2023-08-20T06:56:59;23.10;99.90
12957;DHT22;6543;48.836;10.092;2023-08-20T06:59:26;23.10;99.90
12957;DHT22;6543;48.836;10.092;2023-08-20T07:01:53;23.20;99.90
12957;DHT22;6543;48.836;10.092;2023-08-20T07:04:20;23.40;99.90
12957;DHT22;6543;48.836;10.092;2023-08-20T07:06:47;23.50;99.90
12957;DHT22;6543;48.836;10.092;2023-08-20T07:09:14;23.60;99.90
12957;DHT22;6543;48.836;10.092;2023-08-20T07:11:41;23.70;99.90
12957;DHT22;6543;48.836;10.092;2023-08-20T07:14:09;23.90;99.90
12957;DHT22;6543;48.836;10.092;2023-08-20T07:16:36;24.00;99.90
12957;DHT22;6543;48.836;10.092;2023-08-20T07:19:03;24.20;99.90
12957;DHT22;6543;48.836;10.092;2023-08-20T07:21:30;24.40;99.90
12957;DHT22;6543;48.836;10.092;2023-08-20T07:23:57;24.40;99.90
12957;DHT22;6543;48.836;10.092;2023-08-20T07:26:24;24.40;99.90
12957;DHT22;6543;48.836;10.092;2023-08-20T07:28:50;24.40;99.90
12957;DHT22;6543;48.836;10.092;2023-08-20T07:31:25;24.70;99.90
12957;DHT22;6543;48.836;10.092;2023-08-20T07:33:52;24.60;99.90
12957;DHT22;6543;48.836;10.092;2023-08-20T07:36:20;24.70;99.90
12957;DHT22;6543;48.836;10.092;2023-08-20T07:38:48;24.80;99.90
12957;DHT22;6543;48.836;10.092;2023-08-20T07:41:15;24.90;99.90
12957;DHT22;6543;48.836;10.092;2023-08-20T07:43:42;25.00;99.90
12957;DHT22;6543;48.836;10.092;2023-08-20T07:46:09;25.20;99.90
12957;DHT22;6543;48.836;10.092;2023-08-20T07:48:38;25.40;99.90
12957;DHT22;6543;48.836;10.092;2023-08-20T07:51:05;25.40;99.90
12957;DHT22;6543;48.836;10.092;2023-08-20T07:53:33;25.40;99.90
12957;DHT22;6543;48.836;10.092;2023-08-20T07:56:00;25.30;99.90
12957;DHT22;6543;48.836;10.092;2023-08-20T07:58:27;25.70;99.90
12957;DHT22;6543;48.836;10.092;2023-08-20T08:00:55;25.60;99.90
12957;DHT22;6543;48.836;10.092;2023-08-20T08:03:22;25.60;99.90
12957;DHT22;6543;48.836;10.092;2023-08-20T08:05:50;25.70;99.90
12957;DHT22;6543;48.836;10.092;2023-08-20T08:08:18;25.80;99.90
12957;DHT22;6543;48.836;10.092;2023-08-20T08:10:45;25.90;99.90
12957;DHT22;6543;48.836;10.092;2023-08-20T08:13:13;26.00;99.90
12957;DHT22;6543;48.836;10.092;2023-08-20T08:15:40;26.20;99.90
12957;DHT22;6543;48.836;10.092;2023-08-20T08:18:07;26.40;99.90
12957;DHT22;6543;48.836;10.092;2023-08-20T08:20:34;26.10;99.90
12957;DHT22;6543;48.836;10.092;2023-08-20T08:23:02;25.90;99.90
12957;DHT22;6543;48.836;10.092;2023-08-20T08:25:29;26.20;99.90
12957;DHT22;6543;48.836;10.092;2023-08-20T08:27:56;26.50;99.90
12957;DHT22;6543;48.836;10.092;2023-08-20T08:30:23;26.60;99.90
12957;DHT22;6543;48.836;10.092;2023-08-20T08:32:50;26.70;99.90
12957;DHT22;6543;48.836;10.092;2023-08-20T08:35:18;26.90;99.90
12957;DHT22;6543;48.836;10.092;2023-08-20T08:37:44;26.60;99.90
12957;DHT22;6543;48.836;10.092;2023-08-20T08:40:13;26.50;99.90
12957;DHT22;6543;48.836;10.092;2023-08-20T08:42:41;26.40;99.90
12957;DHT22;6543;48.836;10.092;2023-08-20T08:45:09;26.40;99.90
12957;DHT22;6543;48.836;10.092;2023-08-20T08:47:39;26.50;99.90
12957;DHT22;6543;48.836;10.092;2023-08-20T08:50:07;26.70;99.90
12957;DHT22;6543;48.836;10.092;2023-08-20T08:52:36;26.80;99.90
12957;DHT22;6543;48.836;10.092;2023-08-20T08:55:04;26.70;99.90
12957;DHT22;6543;48.836;10.092;2023-08-20T08:57:35;26.90;99.90
12957;DHT22;6543;48.836;10.092;2023-08-20T09:00:02;27.00;99.90
12957;DHT22;6543;48.836;10.092;2023-08-20T09:02:29;27.20;99.90
12957;DHT22;6543;48.836;10.092;2023-08-20T09:04:56;27.40;99.90
12957;DHT22;6543;48.836;10.092;2023-08-20T09:07:23;27.30;99.90
12957;DHT22;6543;48.836;10.092;2023-08-20T09:09:50;27.20;99.90
12957;DHT22;6543;48.836;10.092;2023-08-20T09:12:18;27.40;99.90
12957;DHT22;6543;48.836;10.092;2023-08-20T09:14:48;27.10;99.90
12957;DHT22;6543;48.836;10.092;2023-08-20T09:17:15;27.30;99.90
12957;DHT22;6543;48.836;10.092;2023-08-20T09:19:44;27.30;99.90
12957;DHT22;6543;48.836;10.092;2023-08-20T09:22:11;27.10;99.90
12957;DHT22;6543;48.836;10.092;2023-08-20T09:24:40;27.50;99.90
12957;DHT22;6543;48.836;10.092;2023-08-20T09:27:08;27.80;99.90
12957;DHT22;6543;48.836;10.092;2023-08-20T09:29:44;27.60;99.90
12957;DHT22;6543;48.836;10.092;2023-08-20T09:32:16;27.90;99.90
12957;DHT22;6543;48.836;10.092;2023-08-20T09:34:43;28.10;99.90
12957;DHT22;6543;48.836;10.092;2023-08-20T09:37:10;28.10;99.90
12957;DHT22;6543;48.836;10.092;2023-08-20T09:39:37;28.30;99.90
12957;DHT22;6543;48.836;10.092;2023-08-20T09:42:05;28.10;99.90
12957;DHT22;6543;48.836;10.092;2023-08-20T09:44:33;28.40;99.90
12957;DHT22;6543;48.836;10.092;2023-08-20T09:47:02;28.20;99.90
12957;DHT22;6543;48.836;10.092;2023-08-20T09:49:35;28.20;99.90
12957;DHT22;6543;48.836;10.092;2023-08-20T09:52:04;28.20;99.90
12957;DHT22;6543;48.836;10.092;2023-08-20T09:54:39;28.20;99.90
12957;DHT22;6543;48.836;10.092;2023-08-20T09:57:17;28.30;99.90
12957;DHT22;6543;48.836;10.092;2023-08-20T09:59:46;28.50;99.90
12957;DHT22;6543;48.836;10.092;2023-08-20T10:02:14;28.70;99.90
12957;DHT22;6543;48.836;10.092;2023-08-20T10:04:43;28.70;99.90
12957;DHT22;6543;48.836;10.092;2023-08-20T10:07:11;28.70;99.90
12957;DHT22;6543;48.836;10.092;2023-08-20T10:09:39;28.90;99.90
12957;DHT22;6543;48.836;10.092;2023-08-20T10:12:07;29.00;99.90
12957;DHT22;6543;48.836;10.092;2023-08-20T10:14:34;28.70;99.90
12957;DHT22;6543;48.836;10.092;2023-08-20T10:17:07;28.80;99.90
12957;DHT22;6543;48.836;10.092;2023-08-20T10:19:34;28.80;99.90
12957;DHT22;6543;48.836;10.092;2023-08-20T10:22:04;28.90;99.90
12957;DHT22;6543;48.836;10.092;2023-08-20T10:24:40;28.90;99.90
12957;DHT22;6543;48.836;10.092;2023-08-20T10:27:08;29.00;99.90
12957;DHT22;6543;48.836;10.092;2023-08-20T10:29:37;29.10;99.90
12957;DHT22;6543;48.836;10.092;2023-08-20T10:32:06;29.40;99.90
12957;DHT22;6543;48.836;10.092;2023-08-20T10:34:35;29.50;99.90
12957;DHT22;6543;48.836;10.092;2023-08-20T10:37:09;29.40;99.90
12957;DHT22;6543;48.836;10.092;2023-08-20T10:39:36;29.70;99.90
12957;DHT22;6543;48.836;10.092;2023-08-20T10:42:11;29.90;99.90
12957;DHT22;6543;48.836;10.092;2023-08-20T10:44:57;29.20;99.90
12957;DHT22;6543;48.836;10.092;2023-08-20T10:47:24;29.60;99.90
12957;DHT22;6543;48.836;10.092;2023-08-20T10:49:52;29.60;99.90
12957;DHT22;6543;48.836;10.092;2023-08-20T10:52:22;29.50;99.90
12957;DHT22;6543;48.836;10.092;2023-08-20T10:54:50;29.60;99.90
12957;DHT22;6543;48.836;10.092;2023-08-20T10:57:18;29.80;99.90
12957;DHT22;6543;48.836;10.092;2023-08-20T10:59:56;29.90;99.90
12957;DHT22;6543;48.836;10.092;2023-08-20T11:02:23;29.70;99.90
12957;DHT22;6543;48.836;10.092;2023-08-20T11:04:51;29.60;99.90
12957;DHT22;6543;48.836;10.092;2023-08-20T11:07:20;29.60;99.90
12957;DHT22;6543;48.836;10.092;2023-08-20T11:09:47;29.70;99.90
12957;DHT22;6543;48.836;10.092;2023-08-20T11:12:15;29.60;99.90
12957;DHT22;6543;48.836;10.092;2023-08-20T11:14:42;29.80;99.90
12957;DHT22;6543;48.836;10.092;2023-08-20T11:17:09;29.60;99.90
12957;DHT22;6543;48.836;10.092;2023-08-20T11:19:36;29.80;99.90
12957;DHT22;6543;48.836;10.092;2023-08-20T11:22:03;29.90;99.90
12957;DHT22;6543;48.836;10.092;2023-08-20T11:24:31;30.30;99.90
12957;DHT22;6543;48.836;10.092;2023-08-20T11:26:58;30.10;99.90
12957;DHT22;6543;48.836;10.092;2023-08-20T11:29:26;29.90;99.90
12957;DHT22;6543;48.836;10.092;2023-08-20T11:31:53;30.00;99.90
12957;DHT22;6543;48.836;10.092;2023-08-20T11:34:20;30.30;99.90
12957;DHT22;6543;48.836;10.092;2023-08-20T11:36:47;30.30;99.90
12957;DHT22;6543;48.836;10.092;2023-08-20T11:39:14;30.30;99.90
12957;DHT22;6543;48.836;10.092;2023-08-20T11:41:43;30.50;99.90
12957;DHT22;6543;48.836;10.092;2023-08-20T11:44:18;30.50;99.90
12957;DHT22;6543;48.836;10.092;2023-08-20T11:46:45;30.80;99.90
12957;DHT22;6543;48.836;10.092;2023-08-20T11:49:13;31.10;99.90
12957;DHT22;6543;48.836;10.092;2023-08-20T11:51:41;31.10;99.90
12957;DHT22;6543;48.836;10.092;2023-08-20T11:54:10;31.20;99.90
12957;DHT22;6543;48.836;10.092;2023-08-20T11:56:45;31.10;99.90
12957;DHT22;6543;48.836;10.092;2023-08-20T11:59:12;30.90;99.90
12957;DHT22;6543;48.836;10.092;2023-08-20T12:01:39;30.80;99.90
12957;DHT22;6543;48.836;10.092;2023-08-20T12:04:08;30.90;99.90
12957;DHT22;6543;48.836;10.092;2023-08-20T12:06:36;30.80;99.90
12957;DHT22;6543;48.836;10.092;2023-08-20T12:09:19;30.70;99.90
12957;DHT22;6543;48.836;10.092;2023-08-20T12:11:50;30.90;99.90
12957;DHT22;6543;48.836;10.092;2023-08-20T12:14:17;31.00;99.90
12957;DHT22;6543;48.836;10.092;2023-08-20T12:16:44;31.40;99.90
12957;DHT22;6543;48.836;10.092;2023-08-20T12:19:12;31.30;99.90
12957;DHT22;6543;48.836;10.092;2023-08-20T12:21:39;31.40;99.90
12957;DHT22;6543;48.836;10.092;2023-08-20T12:24:08;31.20;99.90
12957;DHT22;6543;48.836;10.092;2023-08-20T12:26:35;30.90;99.90
12957;DHT22;6543;48.836;10.092;2023-08-20T12:29:03;30.90;99.90
12957;DHT22;6543;48.836;10.092;2023-08-20T12:31:31;30.90;99.90
12957;DHT22;6543;48.836;10.092;2023-08-20T12:33:58;30.90;99.90
12957;DHT22;6543;48.836;10.092;2023-08-20T12:36:25;31.00;99.90
12957;DHT22;6543;48.836;10.092;2023-08-20T12:38:52;30.90;99.90
12957;DHT22;6543;48.836;10.092;2023-08-20T12:41:19;31.10;99.90
12957;DHT22;6543;48.836;10.092;2023-08-20T12:43:46;31.30;99.90
12957;DHT22;6543;48.836;10.092;2023-08-20T12:46:14;31.40;99.90
12957;DHT22;6543;48.836;10.092;2023-08-20T12:48:41;31.70;99.90
12957;DHT22;6543;48.836;10.092;2023-08-20T12:51:08;31.70;99.90
12957;DHT22;6543;48.836;10.092;2023-08-20T12:53:38;31.70;99.90
12957;DHT22;6543;48.836;10.092;2023-08-20T12:56:05;31.90;99.90
12957;DHT22;6543;48.836;10.092;2023-08-20T12:58:32;32.20;99.90
12957;DHT22;6543;48.836;10.092;2023-08-20T13:00:58;32.20;99.90
12957;DHT22;6543;48.836;10.092;2023-08-20T13:03:27;32.30;99.90
12957;DHT22;6543;48.836;10.092;2023-08-20T13:05:54;31.90;99.90
12957;DHT22;6543;48.836;10.092;2023-08-20T13:08:22;32.00;99.90
12957;DHT22;6543;48.836;10.092;2023-08-20T13:10:53;32.20;99.90
12957;DHT22;6543;48.836;10.092;2023-08-20T13:13:21;32.30;99.90
12957;DHT22;6543;48.836;10.092;2023-08-20T13:15:50;32.00;99.90
12957;DHT22;6543;48.836;10.092;2023-08-20T13:18:18;31.90;99.90
12957;DHT22;6543;48.836;10.092;2023-08-20T13:20:46;31.70;99.90
12957;DHT22;6543;48.836;10.092;2023-08-20T13:23:13;31.50;99.90
12957;DHT22;6543;48.836;10.092;2023-08-20T13:25:40;31.80;99.90
12957;DHT22;6543;48.836;10.092;2023-08-20T13:28:08;31.90;99.90
12957;DHT22;6543;48.836;10.092;2023-08-20T13:30:35;31.60;99.90
12957;DHT22;6543;48.836;10.092;2023-08-20T13:33:02;31.60;99.90
12957;DHT22;6543;48.836;10.092;2023-08-20T13:35:29;31.70;99.90
12957;DHT22;6543;48.836;10.092;2023-08-20T13:37:57;31.70;99.90
12957;DHT22;6543;48.836;10.092;2023-08-20T13:40:24;31.70;99.90
12957;DHT22;6543;48.836;10.092;2023-08-20T13:42:51;31.60;99.90
12957;DHT22;6543;48.836;10.092;2023-08-20T13:45:18;31.50;99.90
12957;DHT22;6543;48.836;10.092;2023-08-20T13:47:45;31.80;99.90
12957;DHT22;6543;48.836;10.092;2023-08-20T13:50:12;32.10;99.90
12957;DHT22;6543;48.836;10.092;2023-08-20T13:52:39;32.20;99.90
12957;DHT22;6543;48.836;10.092;2023-08-20T13:55:08;32.50;99.90
12957;DHT22;6543;48.836;10.092;2023-08-20T13:57:35;32.70;99.90
12957;DHT22;6543;48.836;10.092;2023-08-20T14:00:02;32.40;99.90
12957;DHT22;6543;48.836;10.092;2023-08-20T14:02:33;32.10;99.90
12957;DHT22;6543;48.836;10.092;2023-08-20T14:05:00;32.30;99.90
12957;DHT22;6543;48.836;10.092;2023-08-20T14:07:26;32.30;99.90
12957;DHT22;6543;48.836;10.092;2023-08-20T14:09:54;32.40;99.90
12957;DHT22;6543;48.836;10.092;2023-08-20T14:12:22;32.40;99.90
12957;DHT22;6543;48.836;10.092;2023-08-20T14:14:49;32.10;99.90
12957;DHT22;6543;48.836;10.092;2023-08-20T14:17:16;32.10;99.90
12957;DHT22;6543;48.836;10.092;2023-08-20T14:19:42;32.10;99.90
12957;DHT22;6543;48.836;10.092;2023-08-20T14:22:09;32.40;99.90
12957;DHT22;6543;48.836;10.092;2023-08-20T14:24:36;32.30;99.90
12957;DHT22;6543;48.836;10.092;2023-08-20T14:27:03;32.30;99.90
12957;DHT22;6543;48.836;10.092;2023-08-20T14:29:34;32.20;99.90
12957;DHT22;6543;48.836;10.092;2023-08-20T14:32:01;32.30;99.90
12957;DHT22;6543;48.836;10.092;2023-08-20T14:34:28;32.30;99.90
12957;DHT22;6543;48.836;10.092;2023-08-20T14:36:55;32.20;99.90
12957;DHT22;6543;48.836;10.092;2023-08-20T14:39:22;32.00;99.90
12957;DHT22;6543;48.836;10.092;2023-08-20T14:41:49;31.90;99.90
12957;DHT22;6543;48.836;10.092;2023-08-20T14:44:16;32.30;99.90
12957;DHT22;6543;48.836;10.092;2023-08-20T14:46:44;32.30;99.90
12957;DHT22;6543;48.836;10.092;2023-08-20T14:49:11;32.30;99.90
12957;DHT22;6543;48.836;10.092;2023-08-20T14:51:37;32.30;99.90
12957;DHT22;6543;48.836;10.092;2023-08-20T14:54:05;32.20;99.90
12957;DHT22;6543;48.836;10.092;2023-08-20T14:56:31;32.40;99.90
12957;DHT22;6543;48.836;10.092;2023-08-20T14:58:58;32.50;99.90
12957;DHT22;6543;48.836;10.092;2023-08-20T15:01:25;32.70;99.90
12957;DHT22;6543;48.836;10.092;2023-08-20T15:03:53;32.40;99.90
12957;DHT22;6543;48.836;10.092;2023-08-20T15:06:20;32.60;99.90
12957;DHT22;6543;48.836;10.092;2023-08-20T15:08:49;32.60;99.90
12957;DHT22;6543;48.836;10.092;2023-08-20T15:11:16;32.70;99.90
12957;DHT22;6543;48.836;10.092;2023-08-20T15:13:43;33.10;99.90
12957;DHT22;6543;48.836;10.092;2023-08-20T15:16:10;33.10;99.90
12957;DHT22;6543;48.836;10.092;2023-08-20T15:18:36;33.20;99.90
12957;DHT22;6543;48.836;10.092;2023-08-20T15:21:05;33.30;99.90
12957;DHT22;6543;48.836;10.092;2023-08-20T15:23:31;34.00;99.90
12957;DHT22;6543;48.836;10.092;2023-08-20T15:25:59;34.90;99.90
12957;DHT22;6543;48.836;10.092;2023-08-20T15:28:26;34.90;99.90
12957;DHT22;6543;48.836;10.092;2023-08-20T15:30:55;34.70;99.90
12957;DHT22;6543;48.836;10.092;2023-08-20T15:35:50;33.90;99.90